createdAt,value
2017-07-18T00:00:22.413Z,0
2017-07-18T00:01:23.209Z,0
2017-07-18T00:02:24.026Z,0
2017-07-18T00:03:25.111Z,0
2017-07-18T00:04:25.893Z,0
2017-07-18T00:05:26.673Z,0
2017-07-18T00:06:27.545Z,0
2017-07-18T00:07:28.342Z,0
2017-07-18T00:08:29.128Z,0
2017-07-18T00:09:29.940Z,0
2017-07-18T00:10:31.201Z,0
2017-07-18T00:11:31.939Z,0
2017-07-18T00:12:32.732Z,0
2017-07-18T00:13:33.596Z,0
2017-07-18T00:14:34.398Z,0
2017-07-18T00:15:35.265Z,0
2017-07-18T00:16:36.387Z,0
2017-07-18T00:17:37.455Z,0
2017-07-18T00:18:38.271Z,0
2017-07-18T00:19:40.488Z,0
2017-07-18T00:20:41.476Z,0
2017-07-18T00:21:42.301Z,0
2017-07-18T00:22:43.087Z,0
2017-07-18T00:23:43.894Z,0
2017-07-18T00:24:44.654Z,0
2017-07-18T00:25:45.535Z,0
2017-07-18T00:26:46.358Z,0
2017-07-18T00:27:47.203Z,0
2017-07-18T00:28:48.203Z,0
2017-07-18T00:29:49.048Z,0
2017-07-18T00:30:50.221Z,0
2017-07-18T00:31:51.050Z,0
2017-07-18T00:32:51.946Z,0
2017-07-18T00:33:52.782Z,0
2017-07-18T00:34:53.558Z,0
2017-07-18T00:35:54.357Z,0
2017-07-18T00:36:55.483Z,0
2017-07-18T00:37:56.364Z,0
2017-07-18T00:38:57.175Z,0
2017-07-18T00:39:57.899Z,0
2017-07-18T00:40:58.719Z,0
2017-07-18T00:41:59.624Z,0
2017-07-18T00:43:00.838Z,0
2017-07-18T00:44:01.592Z,0
2017-07-18T00:45:02.424Z,0
2017-07-18T00:46:03.215Z,0
2017-07-18T00:47:04.025Z,0
2017-07-18T00:48:04.742Z,0
2017-07-18T00:49:05.584Z,0
2017-07-18T00:50:06.423Z,0
2017-07-18T00:51:07.200Z,0
2017-07-18T00:52:07.944Z,0
2017-07-18T00:53:08.882Z,0
2017-07-18T00:54:09.737Z,0
2017-07-18T00:55:10.563Z,0
2017-07-18T00:56:11.305Z,0
2017-07-18T00:57:12.109Z,0
2017-07-18T00:58:13.019Z,0
2017-07-18T00:59:14.107Z,0
2017-07-18T01:00:14.876Z,0
2017-07-18T01:01:15.945Z,0
2017-07-18T01:02:16.740Z,0
2017-07-18T01:03:17.595Z,0
2017-07-18T01:04:18.389Z,0
2017-07-18T01:05:19.187Z,0
2017-07-18T01:06:20.119Z,0
2017-07-18T01:07:20.900Z,0
2017-07-18T01:08:21.721Z,0
2017-07-18T01:09:22.615Z,0
2017-07-18T01:10:23.418Z,0
2017-07-18T01:11:24.245Z,0
2017-07-18T01:12:25.030Z,0
2017-07-18T01:13:26.821Z,0
2017-07-18T01:14:27.552Z,0
2017-07-18T01:15:28.379Z,0
2017-07-18T01:16:29.157Z,0
2017-07-18T01:17:29.908Z,0
2017-07-18T01:18:30.977Z,0
2017-07-18T01:19:51.046Z,0
2017-07-18T01:22:07.793Z,0
2017-07-18T01:23:08.916Z,0
2017-07-18T01:24:10.098Z,0
2017-07-18T01:25:11.145Z,0
2017-07-18T01:26:11.913Z,0
2017-07-18T01:27:12.991Z,0
2017-07-18T01:28:15.118Z,0
2017-07-18T01:29:16.088Z,0
2017-07-18T01:30:17.858Z,0
2017-07-18T01:31:18.660Z,0
2017-07-18T01:32:19.539Z,0
2017-07-18T01:33:20.583Z,0
2017-07-18T01:34:21.777Z,0
2017-07-18T01:35:22.539Z,0
2017-07-18T01:36:23.339Z,0
2017-07-18T01:37:24.066Z,0
2017-07-18T01:38:25.106Z,0
2017-07-18T01:39:25.962Z,0
2017-07-18T01:40:26.785Z,0
2017-07-18T01:41:27.480Z,0
2017-07-18T01:42:28.328Z,0
2017-07-18T01:43:29.199Z,0
2017-07-18T01:44:30.089Z,0
2017-07-18T01:45:31.042Z,0
2017-07-18T01:46:31.787Z,0
2017-07-18T01:47:32.583Z,0
2017-07-18T01:48:33.344Z,0
2017-07-18T01:49:34.113Z,0
2017-07-18T01:50:34.934Z,0
2017-07-18T01:51:35.642Z,0
2017-07-18T01:52:36.441Z,0
2017-07-18T01:53:37.202Z,0
2017-07-18T01:54:38.050Z,0
2017-07-18T01:55:38.860Z,0
2017-07-18T01:56:39.705Z,0
2017-07-18T01:57:40.679Z,0
2017-07-18T01:58:41.480Z,0
2017-07-18T01:59:42.322Z,0
2017-07-18T02:00:43.027Z,0
2017-07-18T02:01:43.843Z,0
2017-07-18T02:02:44.567Z,0
2017-07-18T02:03:45.386Z,0
2017-07-18T02:04:46.261Z,0
2017-07-18T02:05:47.025Z,0
2017-07-18T02:06:48.102Z,0
2017-07-18T02:07:48.843Z,0
2017-07-18T02:08:49.604Z,0
2017-07-18T02:09:50.399Z,0
2017-07-18T02:10:51.141Z,0
2017-07-18T02:11:52.057Z,0
2017-07-18T02:12:52.839Z,0
2017-07-18T02:13:53.574Z,0
2017-07-18T02:14:54.396Z,0
2017-07-18T02:15:55.214Z,0
2017-07-18T02:16:55.951Z,0
2017-07-18T02:17:56.662Z,0
2017-07-18T02:18:57.444Z,0
2017-07-18T02:19:58.272Z,0
2017-07-18T02:20:59.100Z,0
2017-07-18T02:21:59.960Z,0
2017-07-18T02:23:00.647Z,0
2017-07-18T02:24:01.490Z,0
2017-07-18T02:25:02.356Z,0
2017-07-18T02:26:03.058Z,0
2017-07-18T02:27:03.920Z,0
2017-07-18T02:28:04.679Z,0
2017-07-18T02:29:05.415Z,0
2017-07-18T02:30:06.471Z,0
2017-07-18T02:32:22.780Z,0
2017-07-18T02:33:23.632Z,0
2017-07-18T02:34:24.418Z,0
2017-07-18T02:35:25.177Z,0
2017-07-18T02:36:25.959Z,0
2017-07-18T02:37:26.696Z,0
2017-07-18T02:38:27.624Z,0
2017-07-18T02:39:28.424Z,0
2017-07-18T02:40:29.214Z,0
2017-07-18T02:41:30.022Z,0
2017-07-18T02:42:30.790Z,0
2017-07-18T02:43:31.553Z,0
2017-07-18T02:44:32.310Z,0
2017-07-18T02:45:33.172Z,0
2017-07-18T02:46:33.968Z,0
2017-07-18T02:47:34.756Z,0
2017-07-18T02:48:35.570Z,0
2017-07-18T02:49:36.357Z,0
2017-07-18T02:50:38.240Z,0
2017-07-18T02:51:39.051Z,0
2017-07-18T02:52:39.774Z,0
2017-07-18T02:53:40.798Z,0
2017-07-18T02:54:41.983Z,0
2017-07-18T02:55:42.763Z,0
2017-07-18T02:56:43.576Z,0
2017-07-18T02:57:44.419Z,0
2017-07-18T02:58:45.156Z,0
2017-07-18T02:59:45.910Z,0
2017-07-18T03:00:46.775Z,0
2017-07-18T03:01:47.524Z,0
2017-07-18T03:02:48.354Z,0
2017-07-18T03:03:49.082Z,0
2017-07-18T03:04:49.902Z,0
2017-07-18T03:05:50.632Z,0
2017-07-18T03:06:52.100Z,0
2017-07-18T03:07:52.810Z,0
2017-07-18T03:08:53.652Z,0
2017-07-18T03:09:54.475Z,0
2017-07-18T03:10:55.198Z,0
2017-07-18T03:11:55.954Z,0
2017-07-18T03:12:56.821Z,0
2017-07-18T03:13:57.645Z,0
2017-07-18T03:15:09.124Z,0
2017-07-18T03:16:09.873Z,0
2017-07-18T03:17:10.616Z,0
2017-07-18T03:18:11.456Z,0
2017-07-18T03:19:12.211Z,0
2017-07-18T03:20:13.039Z,0
2017-07-18T03:21:13.855Z,0
2017-07-18T03:22:14.638Z,0
2017-07-18T03:23:15.472Z,0
2017-07-18T03:24:16.194Z,0
2017-07-18T03:25:17.020Z,0
2017-07-18T03:26:17.847Z,0
2017-07-18T03:27:18.640Z,0
2017-07-18T03:28:19.402Z,0
2017-07-18T03:29:20.254Z,0
2017-07-18T03:31:36.688Z,0
2017-07-18T03:32:37.430Z,0
2017-07-18T03:33:38.224Z,0
2017-07-18T03:34:38.971Z,0
2017-07-18T03:35:39.881Z,0
2017-07-18T03:36:40.920Z,0
2017-07-18T03:37:41.742Z,0
2017-07-18T03:38:42.536Z,0
2017-07-18T03:39:44.947Z,0
2017-07-18T03:40:45.782Z,0
2017-07-18T03:41:47.346Z,0
2017-07-18T03:42:48.230Z,0
2017-07-18T03:43:49.279Z,0
2017-07-18T03:44:49.979Z,0
2017-07-18T03:45:50.904Z,0
2017-07-18T03:46:51.821Z,0
2017-07-18T03:47:52.610Z,0
2017-07-18T03:48:53.331Z,0
2017-07-18T03:49:54.115Z,0
2017-07-18T03:50:55.041Z,0
2017-07-18T03:51:55.800Z,0
2017-07-18T03:52:56.614Z,0
2017-07-18T03:53:57.551Z,0
2017-07-18T03:54:58.252Z,0
2017-07-18T03:55:59.017Z,0
2017-07-18T03:56:59.842Z,0
2017-07-18T03:58:00.675Z,0
2017-07-18T03:59:01.477Z,0
2017-07-18T04:00:02.270Z,0
2017-07-18T04:01:03.123Z,0
2017-07-18T04:02:03.880Z,0
2017-07-18T04:03:04.696Z,0
2017-07-18T04:04:05.493Z,0
2017-07-18T04:05:06.230Z,0
2017-07-18T04:06:07.179Z,0
2017-07-18T04:07:07.976Z,0
2017-07-18T04:08:08.811Z,0
2017-07-18T04:09:09.520Z,0
2017-07-18T04:10:10.580Z,0
2017-07-18T04:11:11.360Z,0
2017-07-18T04:12:12.325Z,0
2017-07-18T04:13:13.981Z,0
2017-07-18T04:14:14.910Z,0
2017-07-18T04:15:15.829Z,0
2017-07-18T04:16:16.635Z,0
2017-07-18T04:17:17.443Z,0
2017-07-18T04:18:20.232Z,0
2017-07-18T04:19:20.907Z,0
2017-07-18T04:20:21.892Z,5
2017-07-18T04:21:22.719Z,5
2017-07-18T04:22:24.407Z,5
2017-07-18T04:23:30.190Z,5
2017-07-18T04:24:31.144Z,5
2017-07-18T04:25:32.329Z,5
2017-07-18T04:26:33.064Z,5
2017-07-18T04:27:33.896Z,5
2017-07-18T04:28:35.329Z,5
2017-07-18T04:29:36.503Z,5
2017-07-18T04:30:38.246Z,5
2017-07-18T04:31:38.973Z,5
2017-07-18T04:32:39.728Z,5
2017-07-18T04:33:40.627Z,5
2017-07-18T04:34:41.579Z,5
2017-07-18T04:35:43.657Z,5
2017-07-18T04:36:44.642Z,5
2017-07-18T04:37:46.221Z,5
2017-07-18T04:38:46.954Z,5
2017-07-18T04:39:47.702Z,5
2017-07-18T04:44:35.392Z,5
2017-07-18T04:45:36.208Z,5
2017-07-18T04:46:43.265Z,5
2017-07-18T04:47:44.110Z,5
2017-07-18T04:48:44.932Z,5
2017-07-18T04:49:46.728Z,5
2017-07-18T04:52:03.757Z,5
2017-07-18T04:53:04.535Z,5
2017-07-18T04:54:05.541Z,5
2017-07-18T04:55:06.309Z,5
2017-07-18T04:56:07.189Z,10
2017-07-18T04:57:08.112Z,10
2017-07-18T04:58:09.524Z,10
2017-07-18T04:59:10.988Z,10
2017-07-18T05:00:12.088Z,10
2017-07-18T05:01:13.258Z,10
2017-07-18T05:02:14.773Z,10
2017-07-18T05:03:16.040Z,10
2017-07-18T05:04:17.068Z,10
2017-07-18T05:05:17.993Z,10
2017-07-18T05:06:18.832Z,10
2017-07-18T05:07:19.671Z,10
2017-07-18T05:08:21.006Z,10
2017-07-18T05:09:22.237Z,10
2017-07-18T05:11:38.675Z,10
2017-07-18T05:12:39.439Z,10
2017-07-18T05:13:40.695Z,10
2017-07-18T05:14:41.661Z,10
2017-07-18T05:15:42.608Z,10
2017-07-18T05:16:43.506Z,10
2017-07-18T05:17:45.433Z,10
2017-07-18T05:18:46.465Z,10
2017-07-18T05:19:47.422Z,10
2017-07-18T05:20:48.250Z,10
2017-07-18T05:21:48.976Z,10
2017-07-18T05:22:49.983Z,10
2017-07-18T05:23:51.585Z,10
2017-07-18T05:24:52.567Z,10
2017-07-18T05:25:53.352Z,10
2017-07-18T05:26:54.108Z,10
2017-07-18T05:27:54.897Z,10
2017-07-18T05:28:55.632Z,10
2017-07-18T05:29:56.526Z,10
2017-07-18T05:30:57.726Z,10
2017-07-18T05:31:59.283Z,10
2017-07-18T05:33:00.063Z,10
2017-07-18T05:34:06.153Z,10
2017-07-18T05:35:07.740Z,10
2017-07-18T05:36:09.624Z,10
2017-07-18T05:37:10.373Z,10
2017-07-18T05:38:11.132Z,10
2017-07-18T05:39:13.389Z,10
2017-07-18T05:41:31.358Z,15
2017-07-18T05:42:32.484Z,15
2017-07-18T05:43:33.284Z,15
2017-07-18T05:44:34.051Z,15
2017-07-18T05:46:50.510Z,15
2017-07-18T05:47:51.598Z,15
2017-07-18T05:48:52.318Z,15
2017-07-18T05:49:53.815Z,15
2017-07-18T05:51:56.383Z,15
2017-07-18T05:52:57.078Z,15
2017-07-18T05:54:00.119Z,15
2017-07-18T05:55:01.168Z,15
2017-07-18T05:56:02.236Z,20
2017-07-18T05:57:04.566Z,20
2017-07-18T05:58:05.742Z,20
2017-07-18T05:59:06.740Z,20
2017-07-18T06:01:23.288Z,25
2017-07-18T06:02:24.270Z,25
2017-07-18T06:03:25.198Z,25
2017-07-18T06:04:26.065Z,30
2017-07-18T06:05:26.863Z,30
2017-07-18T06:06:27.877Z,30
2017-07-18T06:07:28.770Z,35
2017-07-18T06:08:29.891Z,40
2017-07-18T06:09:30.661Z,40
2017-07-18T06:10:31.448Z,45
2017-07-18T06:11:32.277Z,50
2017-07-18T06:12:33.082Z,50
2017-07-18T06:13:35.318Z,50
2017-07-18T06:14:36.287Z,50
2017-07-18T06:15:37.139Z,50
2017-07-18T06:16:38.336Z,55
2017-07-18T06:17:39.119Z,60
2017-07-18T06:18:39.881Z,65
2017-07-18T06:19:40.658Z,65
2017-07-18T06:20:42.557Z,65
2017-07-18T06:21:43.798Z,65
2017-07-18T06:22:45.604Z,65
2017-07-18T06:23:46.347Z,60
2017-07-18T06:24:48.145Z,60
2017-07-18T06:25:52.008Z,65
2017-07-18T06:26:53.033Z,65
2017-07-18T06:27:53.753Z,70
2017-07-18T06:28:55.627Z,75
2017-07-18T06:29:56.432Z,75
2017-07-18T06:30:58.172Z,80
2017-07-18T06:31:59.386Z,85
2017-07-18T06:33:06.682Z,95
2017-07-18T06:34:07.389Z,100
2017-07-18T06:35:08.266Z,105
2017-07-18T06:36:09.004Z,110
2017-07-18T06:37:09.918Z,120
2017-07-18T06:38:16.974Z,120
2017-07-18T06:39:17.805Z,120
2017-07-18T06:40:18.525Z,115
2017-07-18T06:41:19.780Z,105
2017-07-18T06:42:20.605Z,105
2017-07-18T06:43:21.365Z,100
2017-07-18T06:44:22.127Z,95
2017-07-18T06:45:23.245Z,95
2017-07-18T06:46:24.012Z,90
2017-07-18T06:47:24.853Z,90
2017-07-18T06:48:25.622Z,80
2017-07-18T06:49:26.445Z,75
2017-07-18T06:50:27.483Z,70
2017-07-18T06:51:28.350Z,75
2017-07-18T06:52:29.371Z,65
2017-07-18T06:53:30.136Z,65
2017-07-18T06:54:31.201Z,60
2017-07-18T06:55:32.139Z,60
2017-07-18T06:56:33.039Z,60
2017-07-18T06:57:34.051Z,60
2017-07-18T06:58:35.196Z,60
2017-07-18T06:59:36.084Z,60
2017-07-18T07:00:37.186Z,60
2017-07-18T07:01:37.976Z,60
2017-07-18T07:02:38.861Z,60
2017-07-18T07:03:39.628Z,65
2017-07-18T07:04:40.377Z,65
2017-07-18T07:05:41.229Z,60
2017-07-18T07:06:42.477Z,60
2017-07-18T07:07:43.518Z,70
2017-07-18T07:08:44.278Z,75
2017-07-18T07:09:45.061Z,80
2017-07-18T07:10:46.036Z,85
2017-07-18T07:11:46.882Z,85
2017-07-18T07:12:47.667Z,90
2017-07-18T07:13:48.529Z,95
2017-07-18T07:14:49.379Z,100
2017-07-18T07:15:50.277Z,100
2017-07-18T07:16:51.005Z,100
2017-07-18T07:17:51.759Z,110
2017-07-18T07:18:52.636Z,115
2017-07-18T07:19:53.400Z,115
2017-07-18T07:20:54.267Z,120
2017-07-18T07:21:55.066Z,120
2017-07-18T07:22:55.958Z,110
2017-07-18T07:23:56.946Z,100
2017-07-18T07:24:58.410Z,90
2017-07-18T07:25:59.475Z,90
2017-07-18T07:27:00.500Z,90
2017-07-18T07:28:01.535Z,100
2017-07-18T07:29:02.341Z,120
2017-07-18T07:30:03.193Z,120
2017-07-18T07:31:04.280Z,115
2017-07-18T07:32:05.187Z,120
2017-07-18T07:33:06.125Z,120
2017-07-18T07:34:07.082Z,130
2017-07-18T07:35:08.050Z,165
2017-07-18T07:36:09.186Z,180
2017-07-18T07:37:10.046Z,185
2017-07-18T07:38:10.834Z,170
2017-07-18T07:39:12.021Z,150
2017-07-18T07:40:13.088Z,160
2017-07-18T07:41:13.946Z,160
2017-07-18T07:42:14.996Z,160
2017-07-18T07:43:15.809Z,175
2017-07-18T07:44:16.596Z,180
2017-07-18T07:45:17.757Z,180
2017-07-18T07:46:18.651Z,170
2017-07-18T07:47:19.400Z,150
2017-07-18T07:48:20.675Z,130
2017-07-18T07:49:21.640Z,120
2017-07-18T07:50:22.819Z,120
2017-07-18T07:51:24.349Z,120
2017-07-18T07:52:25.394Z,120
2017-07-18T07:53:26.142Z,115
2017-07-18T07:54:27.019Z,100
2017-07-18T07:55:27.882Z,100
2017-07-18T07:56:28.840Z,95
2017-07-18T07:57:29.934Z,90
2017-07-18T07:58:31.446Z,90
2017-07-18T07:59:32.226Z,85
2017-07-18T08:00:33.709Z,85
2017-07-18T08:01:34.489Z,90
2017-07-18T08:02:35.387Z,90
2017-07-18T08:03:36.214Z,95
2017-07-18T08:04:36.972Z,95
2017-07-18T08:05:37.929Z,90
2017-07-18T08:06:38.799Z,85
2017-07-18T08:07:39.576Z,80
2017-07-18T08:08:40.592Z,80
2017-07-18T08:09:41.342Z,80
2017-07-18T08:10:42.077Z,80
2017-07-18T08:11:43.015Z,80
2017-07-18T08:12:43.745Z,85
2017-07-18T08:13:45.110Z,90
2017-07-18T08:14:45.991Z,90
2017-07-18T08:15:47.214Z,95
2017-07-18T08:16:47.999Z,95
2017-07-18T08:17:49.293Z,100
2017-07-18T08:18:50.099Z,100
2017-07-18T08:19:50.988Z,105
2017-07-18T08:20:51.856Z,110
2017-07-18T08:21:52.688Z,120
2017-07-18T08:22:53.443Z,125
2017-07-18T08:23:54.155Z,130
2017-07-18T08:24:54.971Z,135
2017-07-18T08:25:55.760Z,145
2017-07-18T08:26:57.052Z,150
2017-07-18T08:27:57.953Z,140
2017-07-18T08:28:59.616Z,120
2017-07-18T08:30:01.239Z,105
2017-07-18T08:31:02.237Z,100
2017-07-18T08:32:02.968Z,95
2017-07-18T08:33:03.990Z,90
2017-07-18T08:34:04.755Z,90
2017-07-18T08:35:05.590Z,90
2017-07-18T08:36:06.325Z,90
2017-07-18T08:37:07.156Z,90
2017-07-18T08:38:08.010Z,90
2017-07-18T08:39:08.822Z,95
2017-07-18T08:40:09.564Z,105
2017-07-18T08:41:10.676Z,110
2017-07-18T08:42:11.383Z,95
2017-07-18T08:43:12.439Z,95
2017-07-18T08:44:13.381Z,90
2017-07-18T08:45:14.302Z,95
2017-07-18T08:46:15.161Z,95
2017-07-18T08:47:15.995Z,90
2017-07-18T08:48:16.741Z,95
2017-07-18T08:49:17.513Z,90
2017-07-18T08:51:34.503Z,80
2017-07-18T08:52:35.438Z,75
2017-07-18T08:53:36.564Z,70
2017-07-18T08:54:37.581Z,75
2017-07-18T08:55:38.584Z,80
2017-07-18T08:56:39.538Z,90
2017-07-18T08:57:40.469Z,100
2017-07-18T08:58:41.398Z,115
2017-07-18T08:59:42.260Z,195
2017-07-18T09:00:43.714Z,155
2017-07-18T09:01:44.497Z,170
2017-07-18T09:02:45.324Z,300
2017-07-18T09:03:46.115Z,445
2017-07-18T09:04:46.995Z,205
2017-07-18T09:05:48.089Z,120
2017-07-18T09:06:49.236Z,175
2017-07-18T09:07:50.326Z,120
2017-07-18T09:08:51.192Z,105
2017-07-18T09:09:52.274Z,95
2017-07-18T09:10:53.325Z,85
2017-07-18T09:11:55.218Z,80
2017-07-18T09:12:56.007Z,80
2017-07-18T09:13:56.836Z,75
2017-07-18T09:14:57.688Z,80
2017-07-18T09:15:58.487Z,80
2017-07-18T09:16:59.929Z,85
2017-07-18T09:18:00.805Z,85
2017-07-18T09:19:02.244Z,80
2017-07-18T09:20:03.164Z,75
2017-07-18T09:21:04.137Z,75
2017-07-18T09:22:05.213Z,70
2017-07-18T09:23:06.042Z,70
2017-07-18T09:24:06.991Z,70
2017-07-18T09:25:08.242Z,75
2017-07-18T09:26:09.486Z,80
2017-07-18T09:27:10.370Z,90
2017-07-18T09:28:11.367Z,90
2017-07-18T09:29:12.610Z,85
2017-07-18T09:30:13.500Z,85
2017-07-18T09:31:14.641Z,75
2017-07-18T09:32:15.601Z,75
2017-07-18T09:33:16.608Z,85
2017-07-18T09:34:17.491Z,125
2017-07-18T09:35:18.631Z,100
2017-07-18T09:36:19.656Z,110
2017-07-18T09:37:20.488Z,115
2017-07-18T09:39:23.104Z,90
2017-07-18T09:40:24.278Z,75
2017-07-18T09:41:25.208Z,75
2017-07-18T09:42:26.393Z,75
2017-07-18T09:43:27.295Z,75
2017-07-18T09:44:28.416Z,75
2017-07-18T09:45:29.820Z,80
2017-07-18T09:46:30.988Z,85
2017-07-18T09:47:31.835Z,95
2017-07-18T09:48:32.704Z,120
2017-07-18T09:49:33.595Z,140
2017-07-18T09:50:34.530Z,175
2017-07-18T09:51:35.522Z,190
2017-07-18T09:52:36.361Z,215
2017-07-18T09:53:37.318Z,210
2017-07-18T09:54:38.401Z,200
2017-07-18T09:55:39.533Z,200
2017-07-18T09:56:40.392Z,220
2017-07-18T09:57:41.415Z,230
2017-07-18T09:58:42.472Z,220
2017-07-18T09:59:43.462Z,290
2017-07-18T10:00:44.599Z,235
2017-07-18T10:01:45.948Z,235
2017-07-18T10:04:02.470Z,165
2017-07-18T10:05:03.375Z,215
2017-07-18T10:06:04.314Z,470
2017-07-18T10:07:05.445Z,250
2017-07-18T10:08:06.299Z,650
2017-07-18T10:09:07.225Z,640
2017-07-18T10:10:08.172Z,635
2017-07-18T10:11:09.406Z,130
2017-07-18T10:12:10.237Z,1135
2017-07-18T10:13:11.084Z,330
2017-07-18T10:14:11.923Z,170
2017-07-18T10:15:13.613Z,155
2017-07-18T10:16:15.032Z,140
2017-07-18T10:17:15.944Z,145
2017-07-18T10:18:16.899Z,130
2017-07-18T10:19:17.938Z,145
2017-07-18T10:20:18.845Z,145
2017-07-18T10:21:19.718Z,135
2017-07-18T10:22:20.587Z,125
2017-07-18T10:23:21.541Z,130
2017-07-18T10:25:38.169Z,130
2017-07-18T10:26:39.145Z,135
2017-07-18T10:27:40.019Z,140
2017-07-18T10:28:41.963Z,140
2017-07-18T10:29:42.728Z,135
2017-07-18T10:30:43.640Z,120
2017-07-18T10:31:44.543Z,110
2017-07-18T10:32:45.435Z,110
2017-07-18T10:33:46.347Z,110
2017-07-18T10:34:47.305Z,95
2017-07-18T10:35:48.500Z,90
2017-07-18T10:36:49.439Z,95
2017-07-18T10:37:50.277Z,90
2017-07-18T10:38:51.173Z,90
2017-07-18T10:39:51.982Z,95
2017-07-18T10:40:52.865Z,95
2017-07-18T10:41:54.441Z,90
2017-07-18T10:42:55.271Z,95
2017-07-18T10:43:56.311Z,105
2017-07-18T10:44:57.240Z,105
2017-07-18T10:45:58.619Z,100
2017-07-18T10:47:00.076Z,95
2017-07-18T10:48:01.140Z,90
2017-07-18T10:49:02.002Z,80
2017-07-18T10:50:03.021Z,75
2017-07-18T10:51:04.690Z,70
2017-07-18T10:52:06.252Z,65
2017-07-18T10:53:07.194Z,60
2017-07-18T10:54:08.281Z,60
2017-07-18T10:55:09.207Z,60
2017-07-18T10:56:10.136Z,65
2017-07-18T10:57:11.264Z,70
2017-07-18T10:58:12.505Z,75
2017-07-18T10:59:13.936Z,80
2017-07-18T11:00:14.962Z,85
2017-07-18T11:01:16.203Z,85
2017-07-18T11:02:17.347Z,80
2017-07-18T11:03:18.646Z,80
2017-07-18T11:04:19.685Z,80
2017-07-18T11:05:20.534Z,85
2017-07-18T11:06:21.636Z,85
2017-07-18T11:07:22.777Z,85
2017-07-18T11:08:24.570Z,80
2017-07-18T11:09:25.589Z,75
2017-07-18T11:10:26.482Z,70
2017-07-18T11:11:27.335Z,65
2017-07-18T11:12:28.459Z,65
2017-07-18T11:13:29.296Z,65
2017-07-18T11:14:30.112Z,65
2017-07-18T11:15:31.458Z,65
2017-07-18T11:16:32.466Z,60
2017-07-18T11:17:33.284Z,60
2017-07-18T11:18:34.097Z,60
2017-07-18T11:19:34.863Z,60
2017-07-18T11:20:35.684Z,60
2017-07-18T11:21:36.435Z,60
2017-07-18T11:22:37.219Z,60
2017-07-18T11:23:37.949Z,65
2017-07-18T11:24:38.878Z,70
2017-07-18T11:25:39.684Z,75
2017-07-18T11:26:40.400Z,75
2017-07-18T11:27:41.359Z,80
2017-07-18T11:28:42.093Z,85
2017-07-18T11:29:42.951Z,90
2017-07-18T11:30:43.817Z,95
2017-07-18T11:31:44.578Z,100
2017-07-18T11:32:45.315Z,90
2017-07-18T11:33:46.221Z,95
2017-07-18T11:34:47.026Z,95
2017-07-18T11:35:47.853Z,85
2017-07-18T11:36:48.699Z,100
2017-07-18T11:37:49.549Z,100
2017-07-18T11:38:50.269Z,95
2017-07-18T11:39:51.061Z,95
2017-07-18T11:40:51.814Z,95
2017-07-18T11:41:52.555Z,95
2017-07-18T11:42:53.362Z,95
2017-07-18T11:43:54.114Z,95
2017-07-18T11:44:54.944Z,90
2017-07-18T11:45:56.276Z,70
2017-07-18T11:46:57.132Z,70
2017-07-18T11:47:57.882Z,70
2017-07-18T11:48:58.626Z,65
2017-07-18T11:49:59.376Z,65
2017-07-18T11:51:00.225Z,65
2017-07-18T11:52:01.057Z,65
2017-07-18T11:53:01.945Z,70
2017-07-18T11:54:02.923Z,70
2017-07-18T11:55:03.682Z,70
2017-07-18T11:56:04.522Z,80
2017-07-18T11:57:05.248Z,85
2017-07-18T11:58:05.938Z,85
2017-07-18T11:59:06.788Z,75
2017-07-18T12:00:07.553Z,70
2017-07-18T12:01:08.316Z,70
2017-07-18T12:02:09.062Z,60
2017-07-18T12:03:09.848Z,60
2017-07-18T12:04:10.740Z,60
2017-07-18T12:05:11.542Z,60
2017-07-18T12:06:12.465Z,60
2017-07-18T12:07:13.368Z,65
2017-07-18T12:08:14.138Z,65
2017-07-18T12:09:14.879Z,70
2017-07-18T12:10:16.001Z,70
2017-07-18T12:11:16.858Z,70
2017-07-18T12:12:17.580Z,65
2017-07-18T12:13:18.445Z,70
2017-07-18T12:14:19.205Z,70
2017-07-18T12:15:20.659Z,85
2017-07-18T12:16:21.588Z,80
2017-07-18T12:17:22.571Z,80
2017-07-18T12:18:24.112Z,70
2017-07-18T12:19:24.954Z,70
2017-07-18T12:20:25.985Z,70
2017-07-18T12:21:26.919Z,70
2017-07-18T12:22:27.852Z,70
2017-07-18T12:23:28.716Z,70
2017-07-18T12:24:29.487Z,70
2017-07-18T12:25:30.602Z,70
2017-07-18T12:26:31.354Z,75
2017-07-18T12:27:32.471Z,75
2017-07-18T12:28:33.261Z,75
2017-07-18T12:29:34.146Z,75
2017-07-18T12:30:35.215Z,75
2017-07-18T12:31:36.137Z,75
2017-07-18T12:32:36.919Z,75
2017-07-18T12:33:37.828Z,70
2017-07-18T12:34:38.591Z,70
2017-07-18T12:35:39.611Z,80
2017-07-18T12:36:40.525Z,75
2017-07-18T12:37:41.335Z,80
2017-07-18T12:38:42.130Z,90
2017-07-18T12:39:42.905Z,85
2017-07-18T12:40:43.845Z,80
2017-07-18T12:41:44.965Z,80
2017-07-18T12:42:45.739Z,75
2017-07-18T12:43:46.582Z,70
2017-07-18T12:44:47.347Z,65
2017-07-18T12:45:48.378Z,60
2017-07-18T12:46:49.534Z,75
2017-07-18T12:47:50.277Z,60
2017-07-18T12:48:51.047Z,65
2017-07-18T12:49:51.848Z,55
2017-07-18T12:50:52.714Z,55
2017-07-18T12:51:53.440Z,55
2017-07-18T12:52:54.221Z,75
2017-07-18T12:53:55.038Z,70
2017-07-18T12:54:55.845Z,65
2017-07-18T12:55:56.721Z,65
2017-07-18T12:56:57.512Z,65
2017-07-18T12:57:58.251Z,70
2017-07-18T12:58:58.938Z,80
2017-07-18T12:59:59.684Z,80
2017-07-18T13:01:00.669Z,80
2017-07-18T13:02:01.515Z,80
2017-07-18T13:03:02.284Z,80
2017-07-18T13:04:03.010Z,75
2017-07-18T13:05:03.890Z,75
2017-07-18T13:06:04.841Z,70
2017-07-18T13:07:05.935Z,75
2017-07-18T13:08:06.825Z,75
2017-07-18T13:09:07.608Z,70
2017-07-18T13:10:08.416Z,70
2017-07-18T13:11:09.197Z,70
2017-07-18T13:12:10.276Z,75
2017-07-18T13:13:11.004Z,75
2017-07-18T13:14:11.793Z,65
2017-07-18T13:15:13.636Z,60
2017-07-18T13:16:14.386Z,55
2017-07-18T13:17:15.154Z,55
2017-07-18T13:18:15.868Z,55
2017-07-18T13:19:16.612Z,60
2017-07-18T13:20:17.441Z,70
2017-07-18T13:21:18.216Z,65
2017-07-18T13:22:19.011Z,65
2017-07-18T13:23:19.837Z,65
2017-07-18T13:24:20.583Z,65
2017-07-18T13:25:21.280Z,75
2017-07-18T13:26:22.073Z,80
2017-07-18T13:27:22.855Z,75
2017-07-18T13:28:23.589Z,75
2017-07-18T13:29:24.472Z,65
2017-07-18T13:30:25.309Z,70
2017-07-18T13:31:26.207Z,65
2017-07-18T13:32:26.991Z,65
2017-07-18T13:33:27.766Z,60
2017-07-18T13:34:28.540Z,60
2017-07-18T13:35:29.402Z,60
2017-07-18T13:36:30.202Z,55
2017-07-18T13:37:30.994Z,65
2017-07-18T13:38:31.735Z,65
2017-07-18T13:39:32.512Z,65
2017-07-18T13:40:33.335Z,65
2017-07-18T13:41:34.062Z,65
2017-07-18T13:42:34.904Z,60
2017-07-18T13:43:35.720Z,60
2017-07-18T13:44:36.482Z,50
2017-07-18T13:45:37.380Z,45
2017-07-18T13:46:38.180Z,40
2017-07-18T13:47:39.388Z,40
2017-07-18T13:48:40.147Z,35
2017-07-18T13:49:40.954Z,35
2017-07-18T13:50:41.885Z,40
2017-07-18T13:51:42.630Z,45
2017-07-18T13:52:43.429Z,40
2017-07-18T13:53:44.223Z,35
2017-07-18T13:54:44.964Z,40
2017-07-18T13:56:48.606Z,50
2017-07-18T13:57:49.444Z,55
2017-07-18T13:58:51.360Z,60
2017-07-18T13:59:55.315Z,65
2017-07-18T14:02:11.058Z,65
2017-07-18T14:03:11.839Z,60
2017-07-18T14:04:12.633Z,55
2017-07-18T14:05:13.573Z,45
2017-07-18T14:06:14.449Z,40
2017-07-18T14:07:15.343Z,40
2017-07-18T14:08:16.127Z,40
2017-07-18T14:09:21.794Z,45
2017-07-18T14:10:22.995Z,45
2017-07-18T14:11:23.952Z,45
2017-07-18T14:12:25.761Z,45
2017-07-18T14:13:26.611Z,50
2017-07-18T14:14:27.686Z,50
2017-07-18T14:15:29.603Z,50
2017-07-18T14:16:31.720Z,55
2017-07-18T14:17:33.375Z,55
2017-07-18T14:18:34.555Z,55
2017-07-18T14:19:35.326Z,50
2017-07-18T14:20:36.290Z,45
2017-07-18T14:21:37.100Z,45
2017-07-18T14:22:38.330Z,45
2017-07-18T14:23:39.070Z,50
2017-07-18T14:24:40.041Z,45
2017-07-18T14:25:41.365Z,45
2017-07-18T14:26:42.248Z,50
2017-07-18T14:27:43.062Z,55
2017-07-18T14:28:43.877Z,45
2017-07-18T14:29:44.866Z,55
2017-07-18T14:30:45.744Z,50
2017-07-18T14:31:46.964Z,55
2017-07-18T14:32:47.815Z,55
2017-07-18T14:33:48.646Z,50
2017-07-18T14:34:49.567Z,50
2017-07-18T14:35:50.370Z,50
2017-07-18T14:36:51.306Z,45
2017-07-18T14:37:52.151Z,45
2017-07-18T14:38:52.978Z,45
2017-07-18T14:39:54.226Z,45
2017-07-18T14:40:55.216Z,40
2017-07-18T14:41:56.014Z,40
2017-07-18T14:42:56.990Z,40
2017-07-18T14:44:59.755Z,35
2017-07-18T14:46:00.759Z,40
2017-07-18T14:47:02.793Z,40
2017-07-18T14:48:06.322Z,50
2017-07-18T14:49:05.391Z,50
2017-07-18T14:50:06.244Z,55
2017-07-18T14:51:07.154Z,50
2017-07-18T14:52:08.067Z,50
2017-07-18T14:53:08.892Z,60
2017-07-18T14:54:09.759Z,55
2017-07-18T14:55:10.741Z,50
2017-07-18T14:56:17.999Z,50
2017-07-18T14:57:18.777Z,55
2017-07-18T14:58:19.628Z,55
2017-07-18T14:59:20.798Z,50